Terminal Aerodrome Forecast
Issued by NWS

Home | Current Version | Previous Version | Text Only | Print | Product List | Glossary On
Versions: 1 2 3 4 5 6 7 8 9 10 11 12 13 14 15 16 17 18 19 20 21 22 23 24 25 26 27 28 29 30 31 32 33 34
000
FTUS43 KDVN 192326 CCA
TAFBRL
TAF COR
KBRL 192326Z 2000/2024 08007KT 2SM BR OVC005
      TEMPO 2000/2004 1SM -RADZ OVC002
     FM200500 10004KT 3/4SM -DZ BR OVC002
     FM200900 10004KT 1/4SM -DZ FG OVC002
     FM201600 12005KT 1SM BR OVC007=

USA.gov is the U.S. government's official web portal to all federal, state and local government web resources and services.